Terminal Aerodrome Forecast
Issued by NWS Twin Cities, MN

Home | Current Version | Previous Version | Text Only | Print | Product List | Glossary On
Versions: 1 2 3 4 5 6 7 8 9 10 11 12 13 14 15 16 17 18 19
356
FTUS43 KMPX 261730
TAFSTC
TAF
KSTC 261730Z 2618/2718 30023G34KT P6SM BKN060
     FM270000 29012KT P6SM SKC
     FM271400 31015G23KT P6SM BKN030=

USA.gov is the U.S. government's official web portal to all federal, state and local government web resources and services.